Time;durP1;ratioP1;P1;durP2;ratioP2;P2;SDS_P1;SDS_P2;PMS_P1;PMS_P2;Temp;Humidity;BMP_temperature;BMP_pressure;BME280_temperature;BME280_humidity;BME280_pressure;Samples;Min_cycle;Max_cycle;Signal;HPM_P1;HPM_P2
2022/03/05 00:01:56;;;;;;;;;41.25;34.75;;;;;11.97;59.29;101356.41;5030194;28;45546;-77
2022/03/05 00:04:22;;;;;;;;;56.25;39.50;;;;;11.88;58.75;101349.34;5060315;28;45906;-77
2022/03/05 00:06:49;;;;;;;;;53.00;37.75;;;;;12.38;58.92;101431.94;5057349;28;45666;-68
2022/03/05 00:09:17;;;;;;;;;57.25;39.50;;;;;12.36;59.12;101425.78;5030885;28;45494;-70
2022/03/05 00:11:44;;;;;;;;;50.25;41.50;;;;;12.38;59.41;101423.19;5035121;28;45380;-68
2022/03/05 00:14:10;;;;;;;;;54.25;38.25;;;;;12.33;59.64;101417.03;5035449;28;45400;-76
2022/03/05 00:16:36;;;;;;;;;51.25;40.50;;;;;12.04;59.35;101373.09;5034565;28;46188;-77
2022/03/05 00:19:02;;;;;;;;;53.75;38.25;;;;;12.37;59.13;101422.31;5034656;28;45883;-78
2022/03/05 00:21:28;;;;;;;;;51.25;37.75;;;;;12.07;59.63;101375.72;5041341;28;45605;-78
2022/03/05 00:23:54;;;;;;;;;50.75;40.50;;;;;12.39;59.41;101424.97;5048927;28;45389;-78
2022/03/05 00:26:23;;;;;;;;;57.75;38.50;;;;;12.32;59.75;101412.66;5034598;28;46490;-74
2022/03/05 00:28:49;;;;;;;;;44.25;37.25;;;;;12.16;59.69;101383.66;5041927;28;45862;-77
2022/03/05 00:31:14;;;;;;;;;50.00;38.50;;;;;12.40;59.28;101426.69;5044447;28;45551;-76
2022/03/05 00:33:40;;;;;;;;;48.75;38.00;;;;;12.41;59.59;101425.81;5055908;28;45505;-76
2022/03/05 00:36:06;;;;;;;;;51.00;41.00;;;;;12.01;59.62;101354.72;5058969;28;46053;-76
2022/03/05 00:38:32;;;;;;;;;43.50;35.25;;;;;12.30;59.48;101410.00;5056206;28;45540;-76
2022/03/05 00:40:58;;;;;;;;;43.75;35.50;;;;;12.40;59.52;101418.81;5055010;28;45405;-78
2022/03/05 00:43:24;;;;;;;;;48.50;38.50;;;;;12.40;59.35;101422.31;5055219;28;45412;-77
2022/03/05 00:45:50;;;;;;;;;42.50;31.25;;;;;12.39;59.63;101422.34;5059015;28;45620;-78
2022/03/05 00:48:16;;;;;;;;;45.75;37.75;;;;;12.15;59.60;101381.91;5047269;28;45477;-70
2022/03/05 00:50:42;;;;;;;;;40.50;35.00;;;;;12.15;59.24;101383.66;5045209;28;45278;-76
2022/03/05 00:53:11;;;;;;;;;51.75;36.00;;;;;12.38;59.50;101417.94;5048923;28;45552;-75
2022/03/05 00:55:37;;;;;;;;;41.50;37.25;;;;;12.29;59.65;101405.63;5038933;28;46526;-76
2022/03/05 00:58:04;;;;;;;;;48.00;38.00;;;;;12.40;59.15;101424.06;5044866;28;45537;-78
2022/03/05 01:00:29;;;;;;;;;43.75;37.75;;;;;11.94;59.72;101347.66;5059211;28;45294;-74
2022/03/05 01:02:55;;;;;;;;;55.25;41.50;;;;;12.27;59.75;101421.38;5037636;28;45893;-74
2022/03/05 01:05:21;;;;;;;;;57.50;42.25;;;;;11.96;59.78;101367.81;5056408;28;46071;-77
2022/03/05 01:07:46;;;;;;;;;48.25;38.25;;;;;12.03;59.92;101382.72;5055868;28;45525;-77
2022/03/05 01:10:12;;;;;;;;;46.00;37.25;;;;;12.06;59.65;101388.00;5053097;28;45497;-75
2022/03/05 01:12:38;;;;;;;;;50.00;37.25;;;;;12.19;59.55;101407.31;5054411;28;45367;-75
2022/03/05 01:15:05;;;;;;;;;51.00;38.50;;;;;12.15;59.06;101402.03;5055018;28;46020;-75
2022/03/05 01:17:31;;;;;;;;;44.75;38.50;;;;;12.05;59.14;101399.38;5055257;28;45407;-79
2022/03/05 01:19:57;;;;;;;;;47.25;38.50;;;;;11.79;59.32;101364.13;5054763;28;45729;-75
2022/03/05 01:22:23;;;;;;;;;49.00;39.75;;;;;11.63;58.73;101344.78;5054523;28;45382;-76
2022/03/05 01:24:49;;;;;;;;;47.25;36.00;;;;;11.99;59.38;101411.56;5054529;28;45341;-73
2022/03/05 01:27:15;;;;;;;;;51.75;36.00;;;;;11.93;59.04;101407.13;4923244;28;45312;-76
2022/03/05 01:29:41;;;;;;;;;48.00;38.50;;;;;11.80;59.37;101384.28;4956056;28;45530;-78
2022/03/05 01:32:07;;;;;;;;;53.25;37.00;;;;;11.83;59.60;101379.03;4954728;28;45766;-77
2022/03/05 01:34:33;;;;;;;;;53.00;40.00;;;;;11.75;59.29;101383.38;4940426;28;45486;-77
2022/03/05 01:36:58;;;;;;;;;48.75;36.75;;;;;11.86;59.41;101407.94;4951653;28;45341;-73
2022/03/05 01:39:24;;;;;;;;;51.50;39.00;;;;;11.83;59.87;101411.41;4954596;28;45349;-76
2022/03/05 01:41:53;;;;;;;;;55.00;41.75;;;;;11.73;59.73;101411.34;4958064;28;45413;-76
2022/03/05 01:44:20;;;;;;;;;54.75;43.00;;;;;11.56;59.66;101405.97;4947126;28;45536;-79
2022/03/05 01:46:45;;;;;;;;;55.00;40.75;;;;;11.16;60.21;101359.25;4941989;28;45365;-75
2022/03/05 01:49:12;;;;;;;;;54.50;41.25;;;;;11.11;60.77;101378.44;4956159;28;45427;-79
2022/03/05 01:51:42;;;;;;;;;48.50;40.00;;;;;10.97;60.84;101375.66;4962995;28;45412;-78
2022/03/05 01:54:08;;;;;;;;;47.75;39.75;;;;;11.13;61.17;101416.00;4945184;28;45505;-75
2022/03/05 01:56:37;;;;;;;;;47.50;38.00;;;;;10.95;61.20;101400.97;4970766;28;45405;-77
2022/03/05 01:59:04;;;;;;;;;44.75;37.75;;;;;11.07;61.34;101422.06;4926988;28;45443;-76
2022/03/05 02:01:33;;;;;;;;;53.25;37.00;;;;;11.04;61.71;101408.94;4923297;28;45647;-77
2022/03/05 02:04:00;;;;;;;;;42.75;34.00;;;;;10.62;61.40;101323.75;4933883;28;46705;-77
2022/03/05 02:06:26;;;;;;;;;47.00;37.50;;;;;11.14;61.55;101407.31;4945708;28;45691;-75
2022/03/05 02:08:52;;;;;;;;;48.25;36.75;;;;;10.96;61.51;101373.91;4941914;28;45395;-77
2022/03/05 02:11:17;;;;;;;;;41.00;33.00;;;;;11.34;61.28;101423.22;4937288;28;46152;-78
2022/03/05 02:13:44;;;;;;;;;44.50;35.75;;;;;11.32;61.48;101417.97;4938725;28;46364;-71
2022/03/05 02:16:10;;;;;;;;;42.50;35.00;;;;;11.40;61.07;101410.19;4935596;28;45421;-75
2022/03/05 02:18:36;;;;;;;;;48.50;36.25;;;;;11.46;60.77;101407.63;4938191;28;45406;-79
2022/03/05 02:21:02;;;;;;;;;45.00;35.75;;;;;11.51;60.59;101402.38;4940295;28;45638;-78
2022/03/05 02:23:27;;;;;;;;;45.25;35.25;;;;;11.59;60.48;101411.22;4937620;28;46198;-77
2022/03/05 02:25:59;;;;;;;;;40.00;31.50;;;;;11.42;60.36;101384.84;4936149;28;46819;-78
2022/03/05 02:28:26;;;;;;;;;42.50;34.50;;;;;11.62;60.19;101416.50;4937718;28;45306;-80
2022/03/05 02:30:53;;;;;;;;;42.00;35.25;;;;;11.49;60.22;101388.41;4934808;28;45726;-78
2022/03/05 02:33:19;;;;;;;;;50.50;39.75;;;;;11.63;59.80;101410.41;4935062;28;45436;-78
2022/03/05 02:35:45;;;;;;;;;40.50;34.25;;;;;11.65;60.42;101411.25;4939155;28;45838;-76
2022/03/05 02:38:13;;;;;;;;;45.00;36.25;;;;;11.66;60.08;101413.91;4938686;28;45501;-79
2022/03/05 02:40:40;;;;;;;;;40.75;36.00;;;;;11.67;60.43;101410.44;4934988;28;45308;-79
2022/03/05 02:43:08;;;;;;;;;42.50;35.25;;;;;11.69;60.36;101410.44;4929913;28;45564;-78
2022/03/05 02:45:35;;;;;;;;;37.00;31.25;;;;;11.53;59.83;101383.22;4937189;28;45388;-76
2022/03/05 02:48:05;;;;;;;;;42.75;32.25;;;;;11.72;60.34;101402.59;4931042;28;45487;-78
2022/03/05 02:50:32;;;;;;;;;38.50;32.50;;;;;11.75;59.85;101407.00;4917414;28;45893;-71
2022/03/05 02:52:57;;;;;;;;;44.75;35.75;;;;;11.77;59.31;101402.59;4936627;28;45595;-75
2022/03/05 02:55:23;;;;;;;;;41.50;34.50;;;;;11.76;59.44;101396.47;4942783;28;45798;-77
2022/03/05 02:57:48;;;;;;;;;36.75;31.25;;;;;11.38;59.74;101333.22;4935473;28;45528;-79
2022/03/05 03:00:15;;;;;;;;;39.00;31.50;;;;;11.72;59.52;101392.09;4937428;28;45436;-82
2022/03/05 03:02:45;;;;;;;;;40.25;33.00;;;;;11.62;59.42;101375.38;4937085;28;46179;-79
2022/03/05 03:05:10;;;;;;;;;46.00;33.50;;;;;11.62;59.13;101370.13;4955301;28;45670;-81
2022/03/05 03:07:38;;;;;;;;;38.00;34.25;;;;;11.75;59.29;101393.88;4946692;28;45631;-76
2022/03/05 03:10:05;;;;;;;;;36.50;33.25;;;;;11.67;59.19;101376.31;4945820;28;45310;-73
2022/03/05 03:12:31;;;;;;;;;35.00;31.00;;;;;11.65;58.77;101366.66;4949895;28;45484;-78
2022/03/05 03:14:59;;;;;;;;;41.00;34.25;;;;;11.82;58.81;101395.69;4939380;28;45559;-74
2022/03/05 03:17:25;;;;;;;;;44.00;34.25;;;;;11.83;58.93;101395.66;4930047;28;45532;-78
2022/03/05 03:19:50;;;;;;;;;42.00;33.75;;;;;11.84;58.77;101392.19;4942415;28;45497;-80
2022/03/05 03:22:16;;;;;;;;;33.25;29.50;;;;;11.77;58.64;101372.03;4939477;28;45575;-73
2022/03/05 03:24:42;;;;;;;;;43.75;34.75;;;;;11.75;58.95;101389.50;4958312;28;45788;-80
2022/03/05 03:27:08;;;;;;;;;41.50;36.00;;;;;11.59;58.84;101380.63;4940521;28;45675;-77
2022/03/05 03:29:34;;;;;;;;;45.50;37.75;;;;;11.50;59.45;101390.16;4939357;28;45694;-78
2022/03/05 03:32:00;;;;;;;;;48.25;40.25;;;;;11.23;59.31;101368.06;4941997;28;46173;-80
2022/03/05 03:34:26;;;;;;;;;50.75;38.75;;;;;11.10;59.93;101384.53;4942203;28;45611;-77
2022/03/05 03:36:52;;;;;;;;;48.25;37.00;;;;;10.97;60.56;101386.16;4949980;28;45459;-79
2022/03/05 03:39:19;;;;;;;;;52.00;40.50;;;;;10.79;61.12;101377.19;4931151;28;45489;-77
2022/03/05 03:41:45;;;;;;;;;50.00;38.00;;;;;10.88;60.84;101392.16;4951511;28;45515;-79
2022/03/05 03:44:11;;;;;;;;;48.00;39.75;;;;;10.75;60.84;101375.44;4924778;28;45401;-79
2022/03/05 03:46:37;;;;;;;;;38.50;32.50;;;;;10.70;61.07;101374.50;4939776;28;45800;-80
2022/03/05 03:49:03;;;;;;;;;44.00;32.25;;;;;10.88;60.92;101400.03;4939783;28;45700;-79
2022/03/05 03:51:29;;;;;;;;;51.25;38.75;;;;;10.58;60.94;101359.53;4958032;28;45610;-77
2022/03/05 03:53:55;;;;;;;;;47.50;38.50;;;;;10.53;61.18;101368.16;4949345;28;45278;-69
2022/03/05 03:56:20;;;;;;;;;50.75;41.75;;;;;10.67;61.15;101399.78;4948646;28;45621;-79
2022/03/05 03:58:46;;;;;;;;;44.00;36.75;;;;;10.42;61.21;101377.63;4927422;28;45466;-78
2022/03/05 04:01:12;;;;;;;;;51.75;39.25;;;;;10.46;61.78;101398.63;4938920;28;46155;-79
2022/03/05 04:03:38;;;;;;;;;41.50;34.75;;;;;10.51;61.68;101398.69;4950705;28;46039;-75
2022/03/05 04:06:03;;;;;;;;;44.25;34.50;;;;;10.58;61.89;101403.16;4928738;28;45444;-79
2022/03/05 04:08:44;;;;;;;;;42.50;33.50;;;;;10.30;61.50;101341.72;4938180;28;45521;-78
2022/03/05 04:11:11;;;;;;;;;46.25;36.00;;;;;10.63;61.39;101400.59;4906162;28;46754;-80
2022/03/05 04:13:37;;;;;;;;;49.75;38.50;;;;;10.36;61.04;101352.25;4940463;28;45422;-78
2022/03/05 04:16:03;;;;;;;;;49.00;39.00;;;;;10.64;61.82;101415.47;4937414;28;45497;-77
2022/03/05 04:18:30;;;;;;;;;51.75;37.75;;;;;10.23;61.70;101338.09;4938678;28;45707;-79
2022/03/05 04:20:56;;;;;;;;;45.25;36.50;;;;;10.45;61.67;101388.16;4939453;28;45740;-78
2022/03/05 04:23:22;;;;;;;;;40.50;34.00;;;;;10.21;62.46;101358.13;4937956;28;45826;-77
2022/03/05 04:25:47;;;;;;;;;41.75;35.00;;;;;10.48;62.31;101411.75;4940116;28;45558;-79
2022/03/05 04:28:13;;;;;;;;;46.00;35.25;;;;;10.10;62.42;101328.31;4940701;28;45479;-78
2022/03/05 04:30:39;;;;;;;;;47.50;36.50;;;;;10.49;62.53;101406.56;4938166;28;47625;-78
2022/03/05 04:33:04;;;;;;;;;48.00;38.50;;;;;10.26;62.71;101373.91;4939027;28;45736;-69
2022/03/05 04:35:30;;;;;;;;;47.00;38.00;;;;;10.39;62.68;101400.31;4940390;28;45378;-79
2022/03/05 04:37:56;;;;;;;;;45.75;36.50;;;;;10.24;62.90;101386.09;4938818;28;45736;-77
2022/03/05 04:40:22;;;;;;;;;50.75;38.00;;;;;10.32;63.12;101405.41;4937592;28;45555;-77
2022/03/05 04:42:49;;;;;;;;;44.25;35.25;;;;;10.25;63.30;101406.16;4937231;28;45431;-79
2022/03/05 04:45:15;;;;;;;;;46.50;35.25;;;;;10.29;63.16;101405.38;4938048;28;45549;-76
2022/03/05 04:47:40;;;;;;;;;48.75;37.25;;;;;10.17;63.00;101388.63;4936460;28;45371;-78
2022/03/05 04:50:08;;;;;;;;;44.75;36.50;;;;;10.14;63.27;101390.31;4937816;28;45445;-78
2022/03/05 04:52:34;;;;;;;;;45.00;37.25;;;;;10.10;63.33;101381.53;4945632;28;45358;-79
2022/03/05 04:55:00;;;;;;;;;44.75;37.25;;;;;10.26;63.55;101419.28;4947914;28;46045;-78
2022/03/05 04:57:26;;;;;;;;;47.50;38.25;;;;;10.03;63.31;101370.97;4926285;28;45278;-79
2022/03/05 04:59:52;;;;;;;;;50.25;38.75;;;;;9.88;63.23;101348.94;4936389;28;47709;-79
2022/03/05 05:02:18;;;;;;;;;44.75;36.25;;;;;10.17;63.14;101403.44;4937254;28;45480;-78
2022/03/05 05:04:43;;;;;;;;;45.50;37.75;;;;;10.09;63.28;101398.09;4956286;28;45427;-77
2022/03/05 05:07:09;;;;;;;;;46.25;36.25;;;;;10.03;62.99;101390.16;4955355;28;45555;-77
2022/03/05 05:09:35;;;;;;;;;50.25;36.75;;;;;10.14;63.05;101409.53;4933856;28;47781;-68
2022/03/05 05:12:00;;;;;;;;;47.25;38.25;;;;;10.06;63.26;101397.16;4940019;28;45519;-80
2022/03/05 05:14:26;;;;;;;;;45.50;36.50;;;;;9.93;63.70;101383.91;4940999;28;45440;-78
2022/03/05 05:16:52;;;;;;;;;47.25;36.00;;;;;10.07;63.94;101414.66;4954602;28;45419;-79
2022/03/05 05:19:30;;;;;;;;;48.00;38.25;;;;;10.02;63.47;101409.34;4939296;28;45283;-79
2022/03/05 05:21:58;;;;;;;;;43.67;37.33;;;;;9.78;64.25;101391.53;4943021;28;45443;-72
2022/03/05 05:24:26;;;;;;;;;48.75;36.50;;;;;9.83;64.52;101407.31;4936414;28;45414;-77
2022/03/05 05:26:55;;;;;;;;;55.75;39.25;;;;;9.93;64.55;101427.53;4946334;28;45322;-78
2022/03/05 05:29:22;;;;;;;;;49.75;36.50;;;;;9.67;64.26;101380.88;4953108;28;46335;-79
2022/03/05 05:31:47;;;;;;;;;47.00;37.50;;;;;9.87;64.62;101430.94;4938712;28;45488;-80
2022/03/05 05:34:13;;;;;;;;;51.50;38.00;;;;;9.45;64.94;101374.44;4939081;28;45674;-78
2022/03/05 05:36:39;;;;;;;;;47.00;37.00;;;;;9.83;64.68;101425.63;4940358;28;45472;-78
2022/03/05 05:39:08;;;;;;;;;49.50;38.25;;;;;9.82;64.87;101422.09;4960638;28;46200;-73
2022/03/05 05:41:35;;;;;;;;;50.25;38.75;;;;;9.91;64.90;101447.53;4965013;28;45438;-78
2022/03/05 05:44:02;;;;;;;;;48.25;39.25;;;;;9.73;64.89;101417.63;4951427;28;46169;-78
2022/03/05 05:46:28;;;;;;;;;47.50;38.00;;;;;9.86;64.98;101443.97;4957118;28;45496;-77
2022/03/05 05:48:56;;;;;;;;;50.25;38.50;;;;;9.83;65.22;101441.31;4944514;28;45517;-77
2022/03/05 05:51:23;;;;;;;;;52.25;42.25;;;;;9.47;65.15;101390.16;4941155;28;47130;-77
2022/03/05 05:53:49;;;;;;;;;52.75;39.75;;;;;9.77;65.38;101436.84;4962432;28;45955;-79
2022/03/05 05:56:14;;;;;;;;;42.50;34.50;;;;;9.73;65.63;101433.31;4960451;28;45703;-78
2022/03/05 05:58:40;;;;;;;;;48.50;39.75;;;;;9.48;65.47;101411.09;4945331;28;46569;-80
2022/03/05 06:01:06;;;;;;;;;50.00;38.25;;;;;9.70;65.41;101453.28;4942514;28;45346;-78
2022/03/05 06:03:31;;;;;;;;;49.50;37.50;;;;;9.48;65.57;101418.94;4958579;28;45432;-76
2022/03/05 06:05:58;;;;;;;;;50.00;38.50;;;;;9.48;66.03;101418.06;4958960;28;45314;-76
2022/03/05 06:08:24;;;;;;;;;48.00;38.00;;;;;9.66;65.55;101441.03;4958730;28;46124;-78
2022/03/05 06:10:51;;;;;;;;;49.75;39.00;;;;;9.69;65.57;101449.81;4961484;28;45413;-79
2022/03/05 06:13:17;;;;;;;;;49.00;37.75;;;;;9.51;65.33;101418.09;4949149;28;45288;-78
2022/03/05 06:15:43;;;;;;;;;50.00;39.00;;;;;9.51;65.21;101405.03;4941853;28;45354;-79
2022/03/05 06:18:09;;;;;;;;;44.00;35.50;;;;;9.53;65.45;101416.41;4956566;28;46120;-81
2022/03/05 06:20:34;;;;;;;;;46.75;37.50;;;;;9.73;65.49;101449.00;4949636;28;45363;-75
2022/03/05 06:23:00;;;;;;;;;49.00;38.50;;;;;9.75;64.92;101449.91;4947474;28;45473;-79
2022/03/05 06:25:25;;;;;;;;;50.25;39.50;;;;;9.80;65.19;101449.09;4941138;28;45424;-72
2022/03/05 06:27:51;;;;;;;;;49.50;36.50;;;;;9.38;65.44;101401.34;4951474;28;45743;-80
2022/03/05 06:30:18;;;;;;;;;47.00;36.25;;;;;9.80;65.03;101459.56;4943866;28;45562;-77
2022/03/05 06:32:43;;;;;;;;;49.75;39.25;;;;;9.79;65.48;101457.81;4959827;28;45559;-80
2022/03/05 06:35:09;;;;;;;;;49.25;40.50;;;;;9.58;65.15;101430.44;4942299;28;45459;-79
2022/03/05 06:37:35;;;;;;;;;56.25;42.00;;;;;9.55;64.71;101433.00;4940980;28;45981;-73
2022/03/05 06:40:02;;;;;;;;;52.50;40.00;;;;;9.42;64.19;101411.00;4923885;28;45375;-75
2022/03/05 06:42:28;;;;;;;;;49.50;39.00;;;;;9.69;64.31;101467.25;4951057;28;45541;-81
2022/03/05 06:44:53;;;;;;;;;48.00;38.50;;;;;9.71;64.01;101458.56;4932492;28;45597;-81
2022/03/05 06:47:19;;;;;;;;;53.00;39.75;;;;;9.56;63.47;101445.22;4950306;28;46230;-79
2022/03/05 06:49:45;;;;;;;;;53.25;42.75;;;;;9.69;63.78;101455.03;4957998;28;45378;-79
2022/03/05 06:52:10;;;;;;;;;52.00;41.00;;;;;9.65;64.06;101460.19;4925217;28;46175;-78
2022/03/05 06:54:37;;;;;;;;;54.00;40.50;;;;;9.73;64.45;101476.91;4946903;28;45354;-78
2022/03/05 06:57:03;;;;;;;;;58.75;42.00;;;;;9.69;64.42;101472.47;4941765;28;45469;-78
2022/03/05 06:59:29;;;;;;;;;56.75;43.75;;;;;9.62;64.39;101470.59;4941656;28;45417;-74
2022/03/05 07:01:55;;;;;;;;;57.25;43.75;;;;;9.69;63.92;101489.03;4958240;28;45400;-80
2022/03/05 07:04:21;;;;;;;;;52.75;42.25;;;;;9.59;63.60;101474.06;4948486;28;45448;-78
2022/03/05 07:06:46;;;;;;;;;52.00;42.50;;;;;9.43;63.34;101453.69;4954919;28;46799;-77
2022/03/05 07:09:12;;;;;;;;;54.00;44.25;;;;;9.58;63.33;101480.13;4955597;28;45728;-79
2022/03/05 07:11:37;;;;;;;;;51.50;39.75;;;;;9.46;63.48;101472.94;4957802;28;45518;-77
2022/03/05 07:14:03;;;;;;;;;52.25;40.25;;;;;9.40;63.01;101451.91;4957969;28;45475;-73
2022/03/05 07:16:29;;;;;;;;;54.00;43.25;;;;;9.50;62.72;101479.97;4957746;28;45670;-78
2022/03/05 07:18:54;;;;;;;;;52.00;41.25;;;;;9.56;62.58;101502.75;4943790;28;45279;-76
2022/03/05 07:21:20;;;;;;;;;52.00;41.75;;;;;9.20;62.53;101459.38;4938332;28;45344;-78
2022/03/05 07:23:46;;;;;;;;;53.25;39.50;;;;;9.08;62.83;101451.28;4939007;28;45798;-77
2022/03/05 07:26:11;;;;;;;;;55.75;43.75;;;;;9.24;62.39;101463.81;4938382;28;46613;-78
2022/03/05 07:28:37;;;;;;;;;55.75;44.25;;;;;9.45;62.99;101502.56;4938271;28;45560;-70
2022/03/05 07:31:03;;;;;;;;;50.25;39.00;;;;;9.49;62.79;101496.53;4941526;28;45420;-79
2022/03/05 07:33:28;;;;;;;;;54.75;43.00;;;;;9.15;62.73;101439.22;4944864;28;45482;-80
2022/03/05 07:35:54;;;;;;;;;50.00;39.25;;;;;9.22;63.53;101454.19;4945937;28;46168;-81
2022/03/05 07:38:20;;;;;;;;;53.00;42.00;;;;;9.55;63.44;101503.59;4938918;28;45501;-77
2022/03/05 07:40:46;;;;;;;;;52.75;40.75;;;;;9.59;63.56;101512.41;4944008;28;45600;-74
2022/03/05 07:43:12;;;;;;;;;50.25;41.50;;;;;9.40;63.93;101485.03;4930150;28;45517;-74
2022/03/05 07:45:38;;;;;;;;;53.50;43.00;;;;;9.50;63.51;101497.41;4922488;28;45585;-76
2022/03/05 07:48:04;;;;;;;;;53.75;41.25;;;;;9.49;63.53;101496.53;4941364;28;45405;-71
2022/03/05 07:50:32;;;;;;;;;55.25;42.50;;;;;9.22;63.42;101443.72;4939498;28;45604;-80
2022/03/05 07:52:57;;;;;;;;;55.25;43.00;;;;;9.68;63.23;101523.91;4935434;28;45665;-77
2022/03/05 07:55:23;;;;;;;;;50.75;38.00;;;;;9.54;63.18;101502.72;4942242;28;46228;-74
2022/03/05 07:57:49;;;;;;;;;56.00;43.75;;;;;9.75;62.94;101527.50;4947074;28;45373;-76
2022/03/05 08:00:15;;;;;;;;;51.00;41.75;;;;;9.65;62.93;101516.00;4943506;28;45483;-80
2022/03/05 08:02:41;;;;;;;;;55.00;42.25;;;;;9.74;63.01;101525.75;4943422;28;45574;-81
2022/03/05 08:05:07;;;;;;;;;49.75;40.50;;;;;9.73;63.49;101530.09;4949464;28;45606;-78
2022/03/05 08:07:33;;;;;;;;;54.75;43.75;;;;;9.76;63.28;101524.03;4941283;28;45390;-80
2022/03/05 08:09:59;;;;;;;;;56.00;42.50;;;;;9.35;63.29;101458.81;4942929;28;45562;-79
2022/03/05 08:12:25;;;;;;;;;59.75;45.75;;;;;9.76;63.51;101524.03;4934352;28;45375;-80
2022/03/05 08:15:00;;;;;;;;;52.25;43.25;;;;;9.73;62.92;101510.91;4953163;28;45326;-76
2022/03/05 08:17:27;;;;;;;;;56.75;41.00;;;;;9.87;62.94;101525.13;4948104;28;45405;-67
2022/03/05 08:19:52;;;;;;;;;58.00;42.50;;;;;9.71;62.86;101491.69;4942697;28;45591;-79
2022/03/05 08:22:18;;;;;;;;;54.00;43.00;;;;;9.92;62.79;101535.69;4942686;28;45504;-73
2022/03/05 08:24:43;;;;;;;;;54.00;42.25;;;;;9.60;62.74;101488.88;4946304;28;45093;-81
2022/03/05 08:27:09;;;;;;;;;53.50;41.25;;;;;9.87;62.74;101517.28;4943586;28;45438;-78
2022/03/05 08:29:41;;;;;;;;;56.00;41.00;;;;;9.89;62.68;101506.81;4940368;28;45456;-69
2022/03/05 08:32:25;;;;;;;;;48.50;39.25;;;;;10.14;62.62;101523.81;4940406;28;45845;-79
2022/03/05 08:34:51;;;;;;;;;47.75;37.00;;;;;10.15;62.40;101499.41;4922087;28;45560;-80
2022/03/05 08:37:16;;;;;;;;;45.25;36.50;;;;;10.37;62.27;101519.00;4939498;28;45389;-81
2022/03/05 08:39:45;;;;;;;;;38.00;33.00;;;;;10.53;62.33;101528.81;4942615;28;45807;-80
2022/03/05 08:42:11;;;;;;;;;42.25;33.50;;;;;10.63;61.98;101529.84;4947934;28;45510;-81
2022/03/05 08:44:37;;;;;;;;;40.75;35.25;;;;;10.44;61.60;101470.19;4924243;28;46925;-70
2022/03/05 08:47:03;;;;;;;;;45.00;37.00;;;;;10.70;61.57;101495.03;4937761;28;45484;-81
2022/03/05 08:49:29;;;;;;;;;47.75;35.00;;;;;10.63;61.48;101466.09;4938874;28;45351;-77
2022/03/05 08:51:55;;;;;;;;;41.75;34.00;;;;;10.76;61.31;101468.88;4949889;28;45313;-78
2022/03/05 08:54:21;;;;;;;;;51.75;36.50;;;;;11.04;61.21;101508.56;4918818;28;47050;-76
2022/03/05 08:56:48;;;;;;;;;42.50;34.75;;;;;11.09;60.76;101498.13;4940384;28;45447;-79
2022/03/05 08:59:14;;;;;;;;;53.00;38.00;;;;;11.34;60.17;101536.91;4942230;28;45361;-80
2022/03/05 09:01:40;;;;;;;;;48.00;36.75;;;;;11.31;60.37;101510.63;4959563;28;45385;-78
2022/03/05 09:04:06;;;;;;;;;38.50;34.25;;;;;11.24;59.93;101482.56;4944010;28;45322;-79
2022/03/05 09:06:32;;;;;;;;;43.75;36.50;;;;;11.55;59.79;101519.63;4939942;28;45480;-75
2022/03/05 09:08:59;;;;;;;;;41.50;35.75;;;;;11.67;59.56;101525.91;4953725;28;45736;-74
2022/03/05 09:11:25;;;;;;;;;40.50;35.25;;;;;11.40;59.37;101466.13;4939258;28;45548;-75
2022/03/05 09:13:51;;;;;;;;;50.00;38.75;;;;;11.59;58.51;101482.94;4946629;28;45625;-80
2022/03/05 09:16:18;;;;;;;;;47.00;34.75;;;;;11.69;58.44;101483.91;4945523;28;45373;-80
2022/03/05 09:18:43;;;;;;;;;57.00;41.50;;;;;11.87;58.26;101507.72;4938713;28;45369;-80
2022/03/05 09:21:09;;;;;;;;;50.00;38.50;;;;;11.98;58.31;101526.22;4919828;28;45630;-80
2022/03/05 09:23:35;;;;;;;;;54.75;39.75;;;;;12.06;57.92;101524.53;4950799;28;45518;-67
2022/03/05 09:26:00;;;;;;;;;51.75;37.25;;;;;12.12;57.96;101523.69;4948169;28;45207;-80
2022/03/05 09:28:26;;;;;;;;;37.75;34.50;;;;;12.25;57.41;101533.44;4937704;28;45389;-75
2022/03/05 09:30:52;;;;;;;;;43.75;37.25;;;;;12.35;57.10;101538.75;4944924;28;45656;-79
2022/03/05 09:33:19;;;;;;;;;48.75;38.00;;;;;12.21;56.41;101492.25;4948412;28;45727;-79
2022/03/05 09:35:45;;;;;;;;;55.00;37.25;;;;;12.30;56.86;101494.06;4937358;28;45446;-78
2022/03/05 09:38:10;;;;;;;;;46.75;39.50;;;;;12.34;56.48;101477.47;4937370;28;45661;-77
2022/03/05 09:40:36;;;;;;;;;50.25;38.00;;;;;12.72;56.10;101532.88;4919688;28;45559;-78
2022/03/05 09:43:03;;;;;;;;;45.00;38.25;;;;;12.54;55.61;101490.72;4955011;28;46120;-77
2022/03/05 09:45:29;;;;;;;;;48.50;37.50;;;;;12.58;55.66;101487.25;4940669;28;45339;-76
2022/03/05 09:47:56;;;;;;;;;45.25;37.25;;;;;12.97;55.39;101518.97;4946344;28;45515;-78
2022/03/05 09:50:24;;;;;;;;;50.75;37.00;;;;;12.99;54.91;101506.72;4939317;28;45457;-76
2022/03/05 09:52:50;;;;;;;;;51.75;40.50;;;;;12.99;54.30;101483.06;4949661;28;46305;-73
2022/03/05 09:55:16;;;;;;;;;47.25;36.25;;;;;13.39;53.96;101522.69;4959095;28;45466;-67
2022/03/05 09:57:42;;;;;;;;;41.50;34.75;;;;;13.48;53.82;101505.19;4963559;28;45155;-79
2022/03/05 10:00:08;;;;;;;;;42.50;32.25;;;;;13.65;53.04;101489.41;4972098;28;44738;-79
2022/03/05 10:02:34;;;;;;;;;41.25;35.50;;;;;13.94;52.46;101493.81;4945052;28;46103;-79
2022/03/05 10:05:29;;;;;;;;;51.75;36.25;;;;;14.29;52.16;101509.63;4942070;28;45650;-80
2022/03/05 10:08:15;;;;;;;;;36.50;31.75;;;;;14.56;51.44;101495.53;4950193;28;45627;-78
2022/03/05 10:10:55;;;;;;;;;41.50;32.75;;;;;14.92;51.05;101501.56;4952900;28;45524;-82
2022/03/05 10:13:31;;;;;;;;;34.75;31.25;;;;;15.27;49.68;101504.06;4944251;28;46294;-81
2022/03/05 10:16:02;;;;;;;;;42.75;33.25;;;;;15.41;48.57;101472.31;4933398;28;45410;-79
2022/03/05 10:18:31;;;;;;;;;43.50;33.00;;;;;15.90;47.63;101508.09;4941294;28;45317;-81
2022/03/05 10:21:00;;;;;;;;;40.75;33.00;;;;;16.00;47.17;101478.06;4957509;28;45476;-77
2022/03/05 10:23:32;;;;;;;;;26.00;21.25;;;;;16.51;46.06;101497.00;4944836;28;45458;-77
2022/03/05 10:26:01;;;;;;;;;36.00;32.50;;;;;16.77;45.71;101492.28;4939467;28;45398;-80
2022/03/05 10:28:28;;;;;;;;;34.25;31.00;;;;;17.16;44.41;101493.59;4952579;28;45758;-78
2022/03/05 10:30:58;;;;;;;;;35.25;31.00;;;;;17.87;43.11;101484.63;4945057;28;45511;-80
2022/03/05 10:33:41;;;;;;;;;32.00;28.50;;;;;19.99;39.27;101501.59;4950423;28;46054;-75
2022/03/05 10:36:17;;;;;;;;;31.50;30.25;;;;;21.95;36.66;101497.75;4941015;28;45476;-79
2022/03/05 10:38:49;;;;;;;;;32.25;29.00;;;;;23.42;34.19;101486.19;4939958;28;45551;-76
2022/03/05 10:41:17;;;;;;;;;30.67;27.33;;;;;24.47;32.25;101485.44;4944642;28;45175;-83
2022/03/05 10:43:45;;;;;;;;;36.33;30.67;;;;;25.14;30.30;101470.75;4936406;28;48138;-79
2022/03/05 10:46:11;;;;;;;;;34.00;29.33;;;;;25.59;28.92;101450.72;4948995;28;45541;-78
2022/03/05 10:48:40;;;;;;;;;34.33;30.33;;;;;25.73;28.69;101367.75;4952394;28;45346;-77
2022/03/05 10:51:15;;;;;;;;;35.00;31.00;;;;;27.07;27.25;101468.06;4944425;28;45295;-79
2022/03/05 10:53:47;;;;;;;;;39.67;31.67;;;;;27.72;26.34;101473.38;4953982;28;45401;-80
2022/03/05 10:56:35;;;;;;;;;34.33;30.00;;;;;28.32;25.30;101473.38;4953311;28;45353;-85
2022/03/05 10:59:06;;;;;;;;;33.33;29.67;;;;;28.48;24.48;101443.72;4961188;28;45242;-86
2022/03/05 11:01:34;;;;;;;;;32.33;27.67;;;;;29.01;24.03;101465.53;4957172;28;45709;-80
2022/03/05 11:04:00;;;;;;;;;30.67;29.33;;;;;29.28;22.74;101462.03;4957679;28;46646;-84
2022/03/05 11:06:27;;;;;;;;;33.33;30.33;;;;;29.61;23.15;101472.44;4943233;28;45271;-85
2022/03/05 11:08:53;;;;;;;;;35.00;27.33;;;;;29.65;22.67;101459.63;4938025;28;45807;-87
2022/03/05 11:11:20;;;;;;;;;31.67;27.67;;;;;29.73;22.98;101473.50;4961100;28;45444;-86